Time;durP1;ratioP1;P1;durP2;ratioP2;P2;SDS_P1;SDS_P2;PMS_P1;PMS_P2;Temp;Humidity;BMP_temperature;BMP_pressure;BME280_temperature;BME280_humidity;BME280_pressure;Samples;Min_cycle;Max_cycle;Signal;HPM_P1;HPM_P2
2023/08/12 00:01:05;;;;;;;21.00;14.73;;;;;;;22.55;100.00;101694.03;5050455;28;20037;-72
2023/08/12 00:03:31;;;;;;;23.05;15.13;;;;;;;22.55;100.00;101691.31;5051211;28;20029;-72
2023/08/12 00:06:00;;;;;;;25.50;17.50;;;;;;;22.43;100.00;101687.94;5037082;28;20053;-72
2023/08/12 00:08:26;;;;;;;24.35;16.55;;;;;;;22.46;100.00;101687.66;5045792;28;20065;-72
2023/08/12 00:10:51;;;;;;;20.92;15.02;;;;;;;22.47;100.00;101692.91;5051919;28;20040;-72
2023/08/12 00:13:17;;;;;;;23.05;15.52;;;;;;;22.51;100.00;101698.06;5050655;28;20052;-72
2023/08/12 00:15:44;;;;;;;28.05;17.05;;;;;;;22.51;100.00;101707.06;5048140;28;20044;-72
2023/08/12 00:18:10;;;;;;;21.60;16.13;;;;;;;22.53;100.00;101702.31;5050670;28;20091;-72
2023/08/12 00:20:37;;;;;;;26.70;14.82;;;;;;;22.54;100.00;101698.63;5051464;28;20061;-72
2023/08/12 00:23:04;;;;;;;26.35;15.95;;;;;;;22.52;100.00;101694.31;5050845;28;20079;-72
2023/08/12 00:25:29;;;;;;;28.20;16.60;;;;;;;22.49;100.00;101696.34;5047022;28;20037;-72
2023/08/12 00:27:55;;;;;;;24.48;17.60;;;;;;;22.42;100.00;101694.41;5050702;28;20061;-72
2023/08/12 00:30:21;;;;;;;18.40;15.70;;;;;;;22.39;100.00;101689.25;5067103;28;20037;-72
2023/08/12 00:32:47;;;;;;;24.80;16.38;;;;;;;22.38;100.00;101682.13;5050330;28;20029;-72
2023/08/12 00:35:12;;;;;;;27.80;16.35;;;;;;;22.34;100.00;101688.84;5051785;28;20747;-72
2023/08/12 00:37:38;;;;;;;29.90;16.05;;;;;;;22.39;100.00;101683.81;5046229;28;20049;-72
2023/08/12 00:40:05;;;;;;;27.58;16.23;;;;;;;22.42;100.00;101687.09;5048569;28;20098;-72
2023/08/12 00:42:31;;;;;;;26.42;17.77;;;;;;;22.35;100.00;101682.44;5045885;28;20227;-72
2023/08/12 00:44:57;;;;;;;22.17;14.98;;;;;;;22.40;100.00;101680.97;5049534;28;20041;-72
2023/08/12 00:47:23;;;;;;;25.58;18.40;;;;;;;22.40;100.00;101677.41;5046297;28;20040;-72
2023/08/12 00:49:49;;;;;;;30.40;19.77;;;;;;;22.31;100.00;101675.59;5049272;28;20045;-72
2023/08/12 00:52:15;;;;;;;34.05;20.52;;;;;;;22.24;100.00;101678.09;5050334;28;20037;-72
2023/08/12 00:54:41;;;;;;;33.83;19.67;;;;;;;22.31;100.00;101673.72;5049713;28;20649;-72
2023/08/12 00:57:07;;;;;;;31.60;21.23;;;;;;;22.32;100.00;101674.59;5050184;28;20033;-72
2023/08/12 00:59:37;;;;;;;31.58;21.30;;;;;;;22.38;100.00;101669.38;5049925;28;20124;-72
2023/08/12 01:02:04;;;;;;;38.55;22.92;;;;;;;22.33;100.00;101668.97;5061999;28;20173;-72
2023/08/12 01:04:29;;;;;;;31.33;20.02;;;;;;;22.36;100.00;101663.25;5048749;28;20120;-72
2023/08/12 01:06:55;;;;;;;35.42;22.77;;;;;;;22.35;100.00;101661.56;5049710;28;20045;-72
2023/08/12 01:09:21;;;;;;;39.65;24.23;;;;;;;22.08;100.00;101659.69;5050234;28;20037;-72
2023/08/12 01:11:59;;;;;;;36.03;24.05;;;;;;;22.04;100.00;101662.84;5048421;28;20064;-72
2023/08/12 01:14:35;;;;;;;34.60;23.30;;;;;;;21.99;100.00;101663.31;5048714;28;20047;-72
2023/08/12 01:17:05;;;;;;;40.17;23.75;;;;;;;21.95;100.00;101659.19;5048774;28;20084;-72
2023/08/12 01:19:35;;;;;;;37.55;24.25;;;;;;;21.96;100.00;101672.63;5048203;28;20033;-71
2023/08/12 01:22:02;;;;;;;34.42;25.10;;;;;;;21.97;100.00;101659.88;5048324;28;20162;-71
2023/08/12 01:24:35;;;;;;;42.28;25.90;;;;;;;21.81;100.00;101662.41;5048675;28;20056;-72
2023/08/12 01:27:01;;;;;;;35.97;24.38;;;;;;;21.60;100.00;101666.22;5049972;28;20114;-72
2023/08/12 01:29:27;;;;;;;49.80;30.48;;;;;;;21.42;100.00;101660.69;5043270;28;20033;-72
2023/08/12 01:32:01;;;;;;;44.88;24.83;;;;;;;21.52;100.00;101667.94;5042497;28;20111;-72
2023/08/12 01:34:46;;;;;;;42.65;27.42;;;;;;;21.59;100.00;101667.22;5057828;28;20045;-72
2023/08/12 01:37:19;;;;;;;49.47;30.42;;;;;;;21.46;100.00;101664.84;5043161;28;20183;-72
2023/08/12 01:39:45;;;;;;;;;;;;;;;21.60;100.00;101663.50;5046442;28;20033;-72
2023/08/12 01:42:11;;;;;;;51.05;30.63;;;;;;;21.60;100.00;101649.94;5047621;28;19923;-72
2023/08/12 01:44:37;;;;;;;44.85;29.20;;;;;;;21.67;100.00;101651.03;5048008;28;20033;-72
2023/08/12 01:47:03;;;;;;;47.63;30.10;;;;;;;21.69;100.00;101646.31;5053982;28;20827;-72
2023/08/12 01:49:28;;;;;;;47.30;29.92;;;;;;;21.70;100.00;101649.88;5079358;28;20032;-72
2023/08/12 01:51:54;;;;;;;58.35;33.80;;;;;;;21.69;100.00;101646.31;5047565;28;20739;-72
2023/08/12 01:54:22;;;;;;;51.40;34.30;;;;;;;21.66;100.00;101646.63;5041289;28;20041;-72
2023/08/12 01:56:48;;;;;;;52.55;33.47;;;;;;;21.64;100.00;101645.06;5049029;28;20037;-72
2023/08/12 01:59:13;;;;;;;61.53;37.03;;;;;;;21.38;100.00;101640.28;5049438;28;20042;-72
2023/08/12 02:01:39;;;;;;;57.90;36.63;;;;;;;21.19;100.00;101651.19;5047513;28;20029;-71
2023/08/12 02:04:05;;;;;;;59.38;36.42;;;;;;;21.18;100.00;101647.59;5047157;28;20069;-72
2023/08/12 02:06:31;;;;;;;58.50;36.85;;;;;;;21.20;100.00;101644.75;5049102;28;20049;-72
2023/08/12 02:08:56;;;;;;;55.72;34.83;;;;;;;21.30;100.00;101642.00;5049911;28;20036;-71
2023/08/12 02:11:22;;;;;;;68.45;40.38;;;;;;;21.29;100.00;101634.88;5046515;28;20931;-72
2023/08/12 02:13:47;;;;;;;56.33;36.70;;;;;;;21.39;100.00;101633.88;5050198;28;20041;-71
2023/08/12 02:16:13;;;;;;;59.17;37.42;;;;;;;21.35;100.00;101635.16;5049360;28;20079;-72
2023/08/12 02:18:38;;;;;;;55.28;35.22;;;;;;;21.43;100.00;101634.41;5046920;28;20029;-72
2023/08/12 02:21:05;;;;;;;66.40;41.45;;;;;;;21.36;100.00;101634.16;5048199;28;20037;-72
2023/08/12 02:23:31;;;;;;;72.90;40.13;;;;;;;21.34;100.00;101630.75;5049091;28;20044;-72
2023/08/12 02:25:56;;;;;;;62.20;37.42;;;;;;;21.50;100.00;101629.25;5047921;28;20497;-72
2023/08/12 02:28:22;;;;;;;57.13;37.03;;;;;;;21.53;100.00;101634.38;5043599;28;20045;-72
2023/08/12 02:30:47;;;;;;;53.63;33.58;;;;;;;21.63;100.00;101627.91;5050486;28;20107;-72
2023/08/12 02:33:13;;;;;;;54.90;34.42;;;;;;;21.60;100.00;101621.94;5050882;28;20139;-72
2023/08/12 02:35:38;;;;;;;59.15;36.35;;;;;;;21.50;100.00;101621.97;5051071;28;20037;-72
2023/08/12 02:38:04;;;;;;;55.00;34.42;;;;;;;21.54;100.00;101619.81;5056774;28;20557;-72
2023/08/12 02:40:29;;;;;;;58.95;35.75;;;;;;;21.45;100.00;101619.72;5048638;28;20033;-72
2023/08/12 02:42:55;;;;;;;57.50;35.88;;;;;;;21.36;100.00;101608.88;5049610;28;20037;-72
2023/08/12 02:45:21;;;;;;;52.45;35.30;;;;;;;21.55;100.00;101613.38;5048574;28;21030;-72
2023/08/12 02:47:46;;;;;;;50.97;34.53;;;;;;;21.57;100.00;101608.66;5049272;28;20037;-72
2023/08/12 02:50:12;;;;;;;52.78;34.33;;;;;;;21.55;100.00;101602.53;5045246;28;20037;-72
2023/08/12 02:52:37;;;;;;;48.00;33.55;;;;;;;21.66;100.00;101603.16;5049840;28;20037;-72
2023/08/12 02:55:03;;;;;;;51.80;33.85;;;;;;;21.76;100.00;101603.13;5050052;28;20067;-72
2023/08/12 02:57:29;;;;;;;46.83;31.38;;;;;;;21.80;100.00;101590.09;5046442;28;20040;-72
2023/08/12 02:59:54;;;;;;;45.03;32.10;;;;;;;21.81;100.00;101594.53;5050814;28;20033;-72
2023/08/12 03:02:20;;;;;;;49.13;31.55;;;;;;;21.66;100.00;101597.75;5047549;28;20691;-72
2023/08/12 03:04:45;;;;;;;52.55;33.15;;;;;;;21.66;100.00;101599.59;5044211;28;20036;-72
2023/08/12 03:07:11;;;;;;;49.08;33.35;;;;;;;21.64;100.00;101598.91;5062496;28;20049;-72
2023/08/12 03:09:36;;;;;;;60.38;33.75;;;;;;;21.77;100.00;101583.09;5037422;28;20064;-72
2023/08/12 03:12:02;;;;;;;64.78;36.63;;;;;;;21.73;100.00;101578.97;5056150;28;20034;-72
2023/08/12 03:14:29;;;;;;;51.72;32.42;;;;;;;21.77;100.00;101574.97;5084662;27;20045;-72
2023/08/12 03:16:57;;;;;;;57.80;34.95;;;;;;;21.73;100.00;101570.84;5048066;28;20030;-72
2023/08/12 03:19:23;;;;;;;55.22;34.22;;;;;;;21.71;100.00;101571.00;5043078;28;20817;-72
2023/08/12 03:21:48;;;;;;;56.55;35.50;;;;;;;21.64;100.00;101569.06;5054584;28;20523;-71
2023/08/12 03:24:14;;;;;;;50.40;31.30;;;;;;;21.78;100.00;101567.66;5084217;28;20585;-72
2023/08/12 03:26:39;;;;;;;51.35;34.70;;;;;;;21.74;100.00;101564.41;5064000;28;20092;-73
2023/08/12 03:29:05;;;;;;;61.95;37.53;;;;;;;21.71;100.00;101560.13;5056272;28;21083;-72
2023/08/12 03:31:34;;;;;;;48.70;33.50;;;;;;;21.65;100.00;101565.31;5037799;28;20029;-72
2023/08/12 03:34:00;;;;;;;57.78;35.63;;;;;;;21.69;100.00;101559.44;5049713;28;20475;-72
2023/08/12 03:36:28;;;;;;;54.45;34.35;;;;;;;21.57;100.00;101555.22;5049459;28;20021;-72
2023/08/12 03:38:53;;;;;;;53.53;36.10;;;;;;;21.59;100.00;101555.09;5082063;27;20773;-72
2023/08/12 03:41:24;;;;;;;56.53;33.63;;;;;;;21.61;100.00;101553.06;5056584;28;20041;-72
2023/08/12 03:43:50;;;;;;;52.17;33.95;;;;;;;21.75;100.00;101554.41;5076165;28;20029;-71
2023/08/12 03:46:17;;;;;;;60.15;35.40;;;;;;;21.69;100.00;101548.59;5075671;28;20093;-71
2023/08/12 03:48:42;;;;;;;52.08;34.25;;;;;;;21.72;100.00;101550.13;5064911;28;20044;-71
2023/08/12 03:51:08;;;;;;;57.95;35.97;;;;;;;21.51;100.00;101535.97;5061566;28;20087;-71
2023/08/12 03:53:33;;;;;;;61.38;34.88;;;;;;;21.63;100.00;101537.47;5062093;28;20056;-72
2023/08/12 03:56:00;;;;;;;49.03;32.10;;;;;;;21.61;100.00;101531.34;5069054;28;20037;-72
2023/08/12 03:58:26;;;;;;;52.33;33.38;;;;;;;21.54;100.00;101543.81;5077851;28;20041;-71
2023/08/12 04:00:53;;;;;;;53.40;31.65;;;;;;;21.44;100.00;101543.88;5067630;28;20068;-71
2023/08/12 04:03:18;;;;;;;53.65;31.65;;;;;;;21.32;100.00;101550.50;5065333;28;20032;-72
2023/08/12 04:05:49;;;;;;;52.60;33.00;;;;;;;21.22;100.00;101550.50;5075275;28;20135;-71
2023/08/12 04:08:15;;;;;;;50.77;32.30;;;;;;;21.13;100.00;101552.22;5070924;28;20037;-71
2023/08/12 04:10:44;;;;;;;54.60;32.65;;;;;;;21.18;100.00;101557.22;5069216;28;20033;-71
2023/08/12 04:13:10;;;;;;;46.90;30.13;;;;;;;21.20;100.00;101560.66;5063488;28;20041;-70
2023/08/12 04:15:35;;;;;;;53.95;33.00;;;;;;;21.11;100.00;101556.97;5071801;28;20041;-71
2023/08/12 04:18:01;;;;;;;54.55;33.08;;;;;;;20.97;100.00;101552.00;5070018;28;20029;-71
2023/08/12 04:20:26;;;;;;;57.47;32.47;;;;;;;21.05;100.00;101560.28;5054580;28;20838;-72
2023/08/12 04:22:52;;;;;;;52.92;31.98;;;;;;;21.03;100.00;101554.13;5066633;28;20592;-71
2023/08/12 04:25:18;;;;;;;53.60;32.33;;;;;;;21.02;100.00;101555.13;5099117;28;20253;-71
2023/08/12 04:27:43;;;;;;;55.45;31.83;;;;;;;21.02;100.00;101551.56;5070872;28;20025;-71
2023/08/12 04:30:09;;;;;;;57.13;34.35;;;;;;;21.06;100.00;101545.72;5067697;28;21487;-72
2023/08/12 04:32:36;;;;;;;56.55;33.03;;;;;;;20.93;100.00;101546.06;5065911;28;20040;-71
2023/08/12 04:35:02;;;;;;;45.42;29.40;;;;;;;21.08;100.00;101540.13;5057948;28;20106;-71
2023/08/12 04:37:28;;;;;;;55.22;34.08;;;;;;;21.03;100.00;101537.00;5059647;28;20029;-72
2023/08/12 04:39:55;;;;;;;58.75;34.70;;;;;;;21.05;100.00;101524.16;5061152;28;20025;-72
2023/08/12 04:42:21;;;;;;;49.13;32.47;;;;;;;21.05;100.00;101525.03;5063040;28;20033;-72
2023/08/12 04:44:46;;;;;;;54.13;33.25;;;;;;;21.01;100.00;101522.75;5066739;28;20036;-72
2023/08/12 04:47:13;;;;;;;66.35;36.03;;;;;;;21.03;100.00;101523.44;5056603;28;20036;-71
2023/08/12 04:49:40;;;;;;;62.80;36.92;;;;;;;21.11;100.00;101513.56;5048125;28;20037;-72
2023/08/12 04:52:06;;;;;;;42.53;29.27;;;;;;;21.15;100.00;101512.28;5051021;28;20035;-72
2023/08/12 04:54:32;;;;;;;47.70;32.25;;;;;;;21.29;100.00;101510.06;5044921;28;20041;-72
2023/08/12 04:56:59;;;;;;;54.88;35.38;;;;;;;21.32;100.00;101502.50;5029900;28;20049;-72
2023/08/12 04:59:25;;;;;;;50.28;31.45;;;;;;;21.40;100.00;101504.47;5045170;28;20033;-72
2023/08/12 05:01:50;;;;;;;56.22;33.60;;;;;;;21.58;100.00;101488.22;5050727;28;20514;-72
2023/08/12 05:04:16;;;;;;;51.58;32.22;;;;;;;21.72;100.00;101496.69;5065664;28;20156;-72
2023/08/12 05:06:42;;;;;;;46.50;32.55;;;;;;;21.91;100.00;101490.25;5050194;28;20037;-72
2023/08/12 05:09:08;;;;;;;52.55;32.95;;;;;;;21.92;100.00;101482.97;5050416;28;20419;-72
2023/08/12 05:11:34;;;;;;;50.58;32.67;;;;;;;21.87;100.00;101478.00;5049183;28;20043;-72
2023/08/12 05:13:59;;;;;;;44.75;29.77;;;;;;;21.82;100.00;101477.59;5081218;27;20852;-73
2023/08/12 05:16:27;;;;;;;42.38;26.67;;;;;;;21.88;100.00;101471.53;5045566;28;20107;-72
2023/08/12 05:18:52;;;;;;;40.10;28.30;;;;;;;21.98;100.00;101468.75;5050320;28;20033;-72
2023/08/12 05:21:18;;;;;;;48.03;29.05;;;;;;;22.05;100.00;101469.00;5053363;28;20040;-72
2023/08/12 05:23:43;;;;;;;45.45;28.13;;;;;;;22.07;100.00;101467.81;5043412;28;20064;-72
2023/08/12 05:26:09;;;;;;;43.38;28.92;;;;;;;22.01;100.00;101473.88;5053240;28;20037;-72
2023/08/12 05:28:34;;;;;;;45.05;27.48;;;;;;;21.93;100.00;101477.38;5047646;28;20041;-72
2023/08/12 05:31:00;;;;;;;46.05;28.67;;;;;;;21.83;100.00;101468.44;5055360;28;20041;-72
2023/08/12 05:33:25;;;;;;;44.85;28.90;;;;;;;21.72;100.00;101474.97;5061374;28;20040;-72
2023/08/12 05:35:51;;;;;;;44.33;29.67;;;;;;;21.61;100.00;101471.63;5046455;28;20040;-72
2023/08/12 05:38:16;;;;;;;50.95;31.23;;;;;;;21.50;100.00;101470.00;5047667;28;20044;-72
2023/08/12 05:40:42;;;;;;;41.33;27.42;;;;;;;21.51;100.00;101466.25;5079206;28;20032;-72
2023/08/12 05:43:08;;;;;;;36.75;24.48;;;;;;;21.51;100.00;101468.13;5052116;28;20542;-71
2023/08/12 05:45:34;;;;;;;34.38;22.80;;;;;;;21.26;100.00;101467.81;5046816;28;20043;-71
2023/08/12 05:47:59;;;;;;;32.92;19.67;;;;;;;21.27;100.00;101474.94;5048301;28;20054;-72
2023/08/12 05:50:25;;;;;;;31.17;19.60;;;;;;;21.09;100.00;101491.19;5044115;28;20038;-71
2023/08/12 05:52:50;;;;;;;29.45;19.65;;;;;;;21.17;100.00;101485.84;5047080;28;20082;-71
2023/08/12 05:55:16;;;;;;;36.75;20.88;;;;;;;21.13;100.00;101497.13;5048479;28;20973;-71
2023/08/12 05:57:41;;;;;;;31.65;21.50;;;;;;;21.30;100.00;101495.50;5045510;28;20122;-71
2023/08/12 06:00:07;;;;;;;43.03;26.80;;;;;;;21.27;100.00;101482.22;5049139;28;20508;-71
2023/08/12 06:02:39;;;;;;;35.50;25.13;;;;;;;21.15;100.00;101470.72;5046448;28;20030;-71
2023/08/12 06:05:05;;;;;;;49.65;29.35;;;;;;;20.89;100.00;101479.56;5052061;28;20592;-70
2023/08/12 06:07:30;;;;;;;51.05;30.95;;;;;;;20.88;100.00;101493.25;5056652;28;20101;-71
2023/08/12 06:09:56;;;;;;;47.10;29.98;;;;;;;21.07;100.00;101504.03;5050156;28;20033;-71
2023/08/12 06:12:21;;;;;;;48.65;31.98;;;;;;;21.06;100.00;101493.31;5051226;28;21050;-71
2023/08/12 06:14:47;;;;;;;48.22;31.27;;;;;;;21.17;100.00;101490.41;5052789;28;20045;-71
2023/08/12 06:17:12;;;;;;;44.45;28.40;;;;;;;21.24;100.00;101491.53;5053075;28;20037;-71
2023/08/12 06:19:38;;;;;;;43.08;29.17;;;;;;;21.09;100.00;101487.63;5049122;28;20075;-71
2023/08/12 06:22:03;;;;;;;46.50;28.10;;;;;;;21.06;100.00;101479.78;5042208;28;20937;-71
2023/08/12 06:24:29;;;;;;;50.88;32.50;;;;;;;20.97;100.00;101486.09;5042509;28;20038;-71
2023/08/12 06:26:54;;;;;;;52.97;32.83;;;;;;;21.08;100.00;101492.16;5044172;28;20775;-71
2023/08/12 06:29:20;;;;;;;49.30;30.35;;;;;;;21.04;100.00;101488.06;5051697;28;20032;-71
2023/08/12 06:31:45;;;;;;;55.67;32.40;;;;;;;21.02;100.00;101498.19;5046304;28;20106;-71
2023/08/12 06:34:11;;;;;;;50.00;29.70;;;;;;;20.94;100.00;101490.81;5048924;28;20463;-71
2023/08/12 06:36:37;;;;;;;33.33;21.67;;;;;;;20.84;100.00;101484.56;5048108;28;20151;-71
2023/08/12 06:39:03;;;;;;;30.98;21.10;;;;;;;20.90;100.00;101483.97;5046537;28;20075;-71
2023/08/12 06:41:29;;;;;;;25.02;18.13;;;;;;;20.79;100.00;101467.91;5044483;28;20037;-71
2023/08/12 06:43:54;;;;;;;27.02;17.58;;;;;;;20.91;100.00;101460.41;5053957;28;20025;-71
2023/08/12 06:46:20;;;;;;;24.38;16.27;;;;;;;21.05;100.00;101456.38;5043195;28;20162;-71
2023/08/12 06:48:45;;;;;;;28.77;17.77;;;;;;;21.03;100.00;101456.50;5046911;28;20033;-71
2023/08/12 06:51:11;;;;;;;29.80;19.35;;;;;;;21.04;100.00;101452.81;5049043;28;20537;-71
2023/08/12 06:53:38;;;;;;;21.17;16.30;;;;;;;21.12;100.00;101452.88;5052161;28;20036;-71
2023/08/12 06:56:03;;;;;;;23.60;17.08;;;;;;;21.13;100.00;101453.75;5047486;28;20071;-71
2023/08/12 06:58:29;;;;;;;26.70;16.10;;;;;;;21.16;100.00;101461.59;5047591;28;20225;-71
2023/08/12 07:00:55;;;;;;;26.98;18.40;;;;;;;21.13;100.00;101454.59;5050649;28;20136;-71
2023/08/12 07:03:20;;;;;;;23.83;18.50;;;;;;;21.01;100.00;101449.53;5038836;28;20037;-71
2023/08/12 07:05:45;;;;;;;28.05;18.10;;;;;;;20.94;100.00;101463.69;5045582;28;20869;-71
2023/08/12 07:08:11;;;;;;;27.95;21.05;;;;;;;20.91;100.00;101457.72;5044448;28;20081;-71
2023/08/12 07:10:41;;;;;;;29.15;18.48;;;;;;;20.96;100.00;101458.13;5047880;28;20716;-71
2023/08/12 07:13:06;;;;;;;27.75;20.17;;;;;;;21.03;100.00;101461.06;5042292;28;20046;-71
2023/08/12 07:15:32;;;;;;;29.23;19.17;;;;;;;21.05;100.00;101459.94;5049638;28;20045;-71
2023/08/12 07:17:58;;;;;;;27.27;17.58;;;;;;;21.15;100.00;101451.75;5045679;28;20041;-71
2023/08/12 07:20:26;;;;;;;28.38;19.88;;;;;;;21.19;100.00;101443.16;5046599;28;20040;-70
2023/08/12 07:22:51;;;;;;;26.80;16.77;;;;;;;21.34;100.00;101439.97;5056058;28;21084;-71
2023/08/12 07:25:17;;;;;;;21.58;16.05;;;;;;;21.29;100.00;101443.09;5056355;28;20048;-71
2023/08/12 07:27:43;;;;;;;25.40;16.83;;;;;;;21.31;100.00;101434.84;5053432;28;20075;-71
2023/08/12 07:30:09;;;;;;;22.95;13.35;;;;;;;21.32;100.00;101428.41;5048336;28;20322;-71
2023/08/12 07:32:37;;;;;;;24.50;14.73;;;;;;;21.33;100.00;101420.09;5049481;28;20647;-71
2023/08/12 07:35:03;;;;;;;21.83;15.68;;;;;;;21.65;100.00;101422.31;5046269;28;20063;-71
2023/08/12 07:37:29;;;;;;;17.85;13.85;;;;;;;21.88;100.00;101414.50;5052650;28;20640;-71
2023/08/12 07:39:54;;;;;;;15.23;12.38;;;;;;;21.94;100.00;101397.63;5049035;28;20029;-71
2023/08/12 07:42:20;;;;;;;16.70;11.20;;;;;;;21.87;100.00;101390.25;5047545;28;20084;-71
2023/08/12 07:44:45;;;;;;;15.57;10.75;;;;;;;21.88;100.00;101383.78;5049957;28;20107;-71
2023/08/12 07:47:11;;;;;;;10.57;8.70;;;;;;;21.84;100.00;101386.00;5053390;28;20566;-71
2023/08/12 07:49:37;;;;;;;12.13;8.70;;;;;;;21.94;100.00;101381.31;5053831;28;20063;-71
2023/08/12 07:52:03;;;;;;;11.27;8.85;;;;;;;21.74;100.00;101393.38;5052626;28;20111;-71
2023/08/12 07:54:29;;;;;;;12.63;8.48;;;;;;;21.83;100.00;101381.53;5045922;28;20915;-71
2023/08/12 07:56:54;;;;;;;18.52;9.13;;;;;;;22.02;100.00;101388.66;5045723;28;20033;-71
2023/08/12 07:59:20;;;;;;;12.55;9.02;;;;;;;22.10;100.00;101385.16;5067066;28;20885;-71
2023/08/12 08:01:46;;;;;;;13.13;9.02;;;;;;;22.06;100.00;101389.22;5046773;28;20039;-71
2023/08/12 08:04:11;;;;;;;10.02;8.35;;;;;;;21.96;100.00;101383.88;5045269;28;20906;-71
2023/08/12 08:06:37;;;;;;;13.02;8.32;;;;;;;22.08;100.00;101382.59;5049982;28;20057;-71
2023/08/12 08:09:03;;;;;;;12.80;7.75;;;;;;;21.80;100.00;101383.75;5046204;28;20037;-71
2023/08/12 08:11:31;;;;;;;10.23;6.03;;;;;;;21.76;100.00;101379.63;5047855;28;20029;-71
2023/08/12 08:13:58;;;;;;;9.65;6.30;;;;;;;21.72;100.00;101379.09;5054507;28;20049;-71
2023/08/12 08:16:23;;;;;;;9.63;6.43;;;;;;;21.97;100.00;101375.56;5049606;28;20132;-72
2023/08/12 08:18:49;;;;;;;8.40;5.88;;;;;;;22.23;100.00;101370.16;5053129;28;20572;-71
2023/08/12 08:21:14;;;;;;;8.02;5.88;;;;;;;22.34;100.00;101363.63;5053099;28;20037;-71
2023/08/12 08:23:40;;;;;;;8.82;5.97;;;;;;;22.52;100.00;101351.81;5048165;28;20033;-72
2023/08/12 08:26:06;;;;;;;7.20;6.13;;;;;;;22.51;100.00;101359.13;5045477;28;20040;-71
2023/08/12 08:28:32;;;;;;;8.57;5.80;;;;;;;22.29;100.00;101349.66;5049484;28;20206;-71
2023/08/12 08:30:58;;;;;;;9.40;6.45;;;;;;;22.13;100.00;101349.53;5050780;28;20128;-71
2023/08/12 08:33:25;;;;;;;11.98;6.30;;;;;;;22.18;100.00;101352.63;5055988;28;20039;-72
2023/08/12 08:35:50;;;;;;;7.63;5.30;;;;;;;;;;5053226;28;20043;-71
2023/08/12 08:38:16;;;;;;;7.72;5.18;;;;;;;22.12;100.00;101351.41;5057255;28;20992;-71
2023/08/12 08:40:42;;;;;;;6.38;5.28;;;;;;;22.31;100.00;101353.06;5047218;28;20041;-71
2023/08/12 08:43:08;;;;;;;10.73;5.38;;;;;;;22.68;100.00;101336.41;5053523;28;20041;-72
2023/08/12 08:45:34;;;;;;;6.93;5.55;;;;;;;22.82;100.00;101331.38;5049993;28;20048;-71
2023/08/12 08:48:02;;;;;;;5.03;4.30;;;;;;;22.91;100.00;101336.69;5047649;28;21059;-72
2023/08/12 08:50:30;;;;;;;6.32;4.65;;;;;;;22.72;100.00;101343.22;5050015;28;20033;-71
2023/08/12 08:52:56;;;;;;;10.15;4.95;;;;;;;22.65;100.00;101347.63;5050460;28;20039;-71
2023/08/12 08:55:22;;;;;;;8.07;4.93;;;;;;;22.51;100.00;101345.53;5053043;28;20045;-72
2023/08/12 08:57:48;;;;;;;9.48;5.60;;;;;;;22.60;100.00;101338.25;5042344;28;20093;-72
2023/08/12 09:00:17;;;;;;;6.15;5.63;;;;;;;22.57;100.00;101341.28;5053616;28;20033;-71
2023/08/12 09:02:46;;;;;;;6.38;4.68;;;;;;;22.67;100.00;101344.75;5038524;28;20166;-71
2023/08/12 09:05:14;;;;;;;6.28;4.95;;;;;;;22.73;100.00;101347.66;5053387;28;20219;-71
2023/08/12 09:07:41;;;;;;;5.78;5.20;;;;;;;22.71;100.00;101338.81;5050835;28;20128;-71
2023/08/12 09:10:08;;;;;;;7.40;6.32;;;;;;;22.56;100.00;101356.75;5067173;28;20462;-71
2023/08/12 09:12:34;;;;;;;7.30;5.82;;;;;;;22.48;100.00;101356.72;5052142;28;20033;-71
2023/08/12 09:14:59;;;;;;;5.78;5.28;;;;;;;22.63;100.00;101351.50;5054995;28;20044;-71
2023/08/12 09:17:25;;;;;;;6.60;5.18;;;;;;;22.45;100.00;101357.06;5046969;28;20032;-71
2023/08/12 09:19:51;;;;;;;7.90;6.10;;;;;;;22.38;100.00;101362.25;5055655;28;20072;-71
2023/08/12 09:22:18;;;;;;;6.60;6.03;;;;;;;22.36;100.00;101371.59;5052197;28;20040;-72
2023/08/12 09:24:43;;;;;;;7.93;7.13;;;;;;;22.75;100.00;101370.09;5051587;28;20074;-71
2023/08/12 09:27:09;;;;;;;8.43;7.50;;;;;;;23.11;100.00;101359.03;5049249;28;20758;-70
2023/08/12 09:29:36;;;;;;;10.40;7.18;;;;;;;23.31;100.00;101351.41;5049457;28;20517;-72
2023/08/12 09:32:12;;;;;;;7.35;6.65;;;;;;;23.75;100.00;101348.41;5053069;28;20197;-71
2023/08/12 09:34:45;;;;;;;7.00;6.13;;;;;;;23.80;100.00;101348.75;5063558;28;20045;-71
2023/08/12 09:37:13;;;;;;;7.07;5.30;;;;;;;23.34;100.00;101348.34;5058095;28;20037;-71
2023/08/12 09:39:39;;;;;;;7.05;5.18;;;;;;;23.62;100.00;101343.44;5059799;28;20048;-71
2023/08/12 09:42:05;;;;;;;5.20;4.70;;;;;;;23.67;100.00;101349.25;5049379;28;20033;-72
2023/08/12 09:44:35;;;;;;;5.90;4.90;;;;;;;23.85;100.00;101346.38;5059824;28;20075;-71
2023/08/12 09:47:00;;;;;;;5.00;4.40;;;;;;;23.81;100.00;101342.28;5057204;28;20457;-71
2023/08/12 09:49:27;;;;;;;5.25;4.85;;;;;;;24.12;100.00;101341.53;5057729;28;20040;-71
2023/08/12 09:51:53;;;;;;;5.35;4.95;;;;;;;23.66;100.00;101342.13;5048617;28;20068;-71
2023/08/12 09:54:19;;;;;;;5.20;4.70;;;;;;;23.50;100.00;101342.94;5052200;28;20338;-72
2023/08/12 09:56:48;;;;;;;4.60;4.20;;;;;;;23.23;100.00;101354.09;5052823;28;20094;-72
2023/08/12 09:59:18;;;;;;;4.00;3.70;;;;;;;22.98;100.00;101361.38;5056139;28;20934;-72
2023/08/12 10:01:45;;;;;;;4.30;2.95;;;;;;;23.14;100.00;101368.72;5046825;28;20159;-71
2023/08/12 10:04:14;;;;;;;3.45;2.80;;;;;;;23.49;100.00;101368.47;5055478;28;20055;-71
2023/08/12 10:06:41;;;;;;;4.20;2.90;;;;;;;23.85;100.00;101354.53;5048162;28;20166;-71
2023/08/12 10:09:09;;;;;;;2.55;2.35;;;;;;;24.69;100.00;101344.97;5048533;28;20506;-73
2023/08/12 10:11:37;;;;;;;3.13;2.22;;;;;;;25.10;100.00;101331.13;5049157;28;20522;-71
2023/08/12 10:14:04;;;;;;;2.70;2.50;;;;;;;25.78;100.00;101332.19;5048207;28;21022;-71
2023/08/12 10:16:30;;;;;;;4.00;2.40;;;;;;;26.05;100.00;101323.34;5047407;28;20065;-71
2023/08/12 10:18:57;;;;;;;2.22;1.90;;;;;;;25.98;100.00;101327.03;5044093;28;20088;-72
2023/08/12 10:21:24;;;;;;;5.40;2.25;;;;;;;25.76;100.00;101335.09;5050293;28;20041;-72
2023/08/12 10:23:50;;;;;;;2.47;1.92;;;;;;;25.49;100.00;101332.91;5044028;28;20040;-72
2023/08/12 10:26:17;;;;;;;2.00;1.90;;;;;;;25.85;100.00;101330.38;5045300;28;20128;-73
2023/08/12 10:28:43;;;;;;;1.63;1.52;;;;;;;26.23;100.00;101327.63;5050522;28;20025;-72
2023/08/12 10:31:11;;;;;;;2.55;1.42;;;;;;;26.31;100.00;101330.28;5042427;28;20116;-72
2023/08/12 10:33:39;;;;;;;3.80;1.50;;;;;;;26.04;100.00;101338.06;5048828;28;20158;-73
2023/08/12 10:36:05;;;;;;;1.75;1.65;;;;;;;26.10;100.00;101341.94;5045275;28;20029;-72
2023/08/12 10:38:33;;;;;;;2.33;2.00;;;;;;;25.89;100.00;101329.00;5041956;28;20037;-72
2023/08/12 10:41:21;;;;;;;1.85;1.60;;;;;;;25.86;100.00;101343.03;5045606;28;20041;-71
2023/08/12 10:43:56;;;;;;;2.10;2.00;;;;;;;25.83;100.00;101349.72;5059029;28;20108;-72
2023/08/12 10:46:22;;;;;;;1.70;1.60;;;;;;;25.82;100.00;101341.72;5050034;28;20041;-72
2023/08/12 10:49:21;;;;;;;2.20;1.98;;;;;;;25.31;100.00;101346.88;5040541;28;20140;-72
2023/08/12 10:51:52;;;;;;;1.92;1.83;;;;;;;25.18;100.00;101350.19;5046029;28;20049;-72
2023/08/12 10:54:22;;;;;;;1.73;1.35;;;;;;;25.58;100.00;101354.50;5044119;28;20036;-72
2023/08/12 10:57:02;;;;;;;2.13;1.63;;;;;;;25.15;100.00;101341.50;5054746;28;20034;-71
2023/08/12 10:59:46;;;;;;;1.52;1.42;;;;;;;24.93;100.00;101360.38;5057229;28;20091;-71
2023/08/12 11:02:44;;;;;;;2.40;1.80;;;;;;;24.91;100.00;101362.44;5047005;28;20034;-72
2023/08/12 11:05:11;;;;;;;2.00;1.75;;;;;;;24.68;100.00;101358.78;5049181;28;20049;-72